This is the latest recevied weather packets stored in our database for station/object JF2ZGN-13. If no packets are shown the sender has not sent any weather packets the latest 10 day(s).
| Time | Temp. | Humidity | Pressure | Rain* | Wind** | Luminosity | Snow |
|---|---|---|---|---|---|---|---|
| 1787684217 | 21.11° C | 77% | 909.2 hPa | 0 mm | - | - | - |
| 1787683616 | 20.56° C | 91% | 909.2 hPa | 0 mm | - | - | - |
| 1787683015 | 20.56° C | 91% | 909.2 hPa | 0 mm | - | - | - |
| 1787682415 | 20.56° C | 90% | 909.3 hPa | 0 mm | - | - | - |
| 1787681815 | 20.56° C | 89% | 909.4 hPa | 0 mm | - | - | - |
| 1787681214 | 20.56° C | 88% | 909.5 hPa | 0 mm | - | - | - |
| 1787680614 | 20.56° C | 86% | 909.4 hPa | 0 mm | - | - | - |
| 1787680013 | 20.56° C | 84% | 909 hPa | 0 mm | - | - | - |
| 1787679413 | 20.56° C | 80% | 909.5 hPa | 0 mm | - | - | - |
| 1787678812 | 21.11° C | 79% | 909.5 hPa | 0 mm | - | - | - |
| 1787678212 | 21.11° C | 78% | 909.7 hPa | 0 mm | - | - | - |
| 1787677611 | 21.11° C | 77% | 909.7 hPa | 0 mm | - | - | - |
| 1787677011 | 21.11° C | 80% | 909.7 hPa | 0 mm | - | - | - |
| 1787676410 | 20.56° C | 80% | 909.8 hPa | 0 mm | - | - | - |
| 1787675810 | 21.11° C | 80% | 910 hPa | 0 mm | - | - | - |
| 1787675209 | 21.11° C | 76% | 910 hPa | 0 mm | - | - | - |
| 1787674609 | 21.11° C | 77% | 910 hPa | 0 mm | - | - | - |
| 1787674008 | 21.67° C | 70% | 910.1 hPa | 0 mm | - | - | - |
| 1787672808 | 21.67° C | 69% | 909.8 hPa | 0 mm | - | - | - |
| 1787672207 | 22.22° C | 69% | 910 hPa | 0 mm | - | - | - |
| 1787671606 | 22.22° C | 67% | 910.1 hPa | 0 mm | - | - | - |
| 1787671006 | 22.22° C | 68% | 910 hPa | 0 mm | - | - | - |
| 1787670406 | 22.22° C | 67% | 909.9 hPa | 0 mm | - | - | - |
| 1787669805 | 22.22° C | 69% | 910 hPa | 0 mm | - | - | - |
| 1787669205 | 21.67° C | 71% | 910 hPa | 0 mm | - | - | - |
* Rain since midnight (hover to see other rain measurements)
** Current wind speed in m/s (hover to see current wind gust speed)